Hilo, HI

8:19 PM HST on May 04, 2015 (GMT -1000)
Hilo International | | Change Station
CLOSE
Current Station
Airport
Location: Hilo,
Elevation: 36 ft
Nearby Weather Stations

Elev 36 ft 19.72 °N, 155.05 °W | Updated 26 minutes ago

Overcast
Overcast
71 °F
Feels Like 71 °F
N
8
Wind Variable Wind from WSW

Today
High -- | Low -- °F
--% Chance of Precip.
Yesterday
High -- | Low -- °F
Precip. -- in
5:49 AM 6:44 PM
Full, 99% visible
Pressure 30.06 in
Visibility 10.0 miles
Clouds Mostly Cloudy 6000 ft
Overcast 7500 ft
Dew Point 63 °F
Humidity 75%
Rainfall 0.18 in
Snow Depth Not available.
UV 0 out of 12
Pollen Not available.
Air Quality Not available.
Flu Activity Regional
METAR PHTO 050553Z 24007KT 10SM BKN060 OVC075 22/17 A3007 RMK AO2 SLP180 T02170172 10256 20217 53012

More Conditions Fewer Conditions

Pressure 30.06 in
Visibility 10.0 miles
Clouds Mostly Cloudy 6000 ft
Overcast 7500 ft
Dew Point 63 °F
Humidity 75%
Rainfall 0.18 in
Snow Depth Not available.
UV 0 out of 12
Pollen Not available.
Air Quality Not available.
Flu Activity Regional
METAR PHTO 050553Z 24007KT 10SM BKN060 OVC075 22/17 A3007 RMK AO2 SLP180 T02170172 10256 20217 53012

More Conditions Fewer Conditions

10-Day Weather Forecast

Almanac

Astronomy

May. 04, 2015 Rise Set
Actual Time
Civil Twilight
Nautical Twilight
Astronomical Twilight
Moon
Length of Visible Light
Length of Day
Tomorrow will be .
, % of the Moon is Illuminated

Today's Extremes

State Highs State Lows

Community

WunderPhotos

Upload Photos

1,818,814 photos uploaded!

WunderBlogs® & News

Nearby

Air Quality

  Air Quality AQ Index Pollutant
Not available.

Snow Depth

Station Depth Elevation

Earthquake Activity

City Distance Mag. Time & Date
Minimum magnitude displayed is 2.5.

Coastal Water Temperatures

Place Temperature

Stations

Nearby Weather Stations

Station Location Temp. Windchill Dew Point Humidity Wind Precip. Elev Updated Type